createdAt,value
2023-01-24T00:00:15.459Z,38.05
2023-01-24T00:02:41.742Z,39.95
2023-01-24T00:05:08.177Z,33.25
2023-01-24T00:07:34.447Z,36.17
2023-01-24T00:10:00.692Z,40.78
2023-01-24T00:12:26.975Z,38.45
2023-01-24T00:14:54.073Z,31.30
2023-01-24T00:17:20.498Z,32.75
2023-01-24T00:19:46.759Z,35.85
2023-01-24T00:22:13.039Z,30.00
2023-01-24T00:24:39.293Z,39.83
2023-01-24T00:27:05.605Z,37.20
2023-01-24T00:29:31.946Z,35.13
2023-01-24T00:31:58.320Z,39.30
2023-01-24T00:34:24.688Z,35.33
2023-01-24T00:36:50.987Z,34.70
2023-01-24T00:39:17.480Z,35.00
2023-01-24T00:41:43.747Z,30.48
2023-01-24T00:44:10.521Z,36.17
2023-01-24T00:46:36.800Z,35.97
2023-01-24T00:49:03.058Z,33.83
2023-01-24T00:51:29.520Z,42.45
2023-01-24T00:53:55.797Z,30.83
2023-01-24T00:56:22.109Z,36.55
2023-01-24T00:58:48.424Z,38.65
2023-01-24T01:01:14.665Z,30.10
2023-01-24T01:03:40.914Z,31.80
2023-01-24T01:06:10.356Z,39.00
2023-01-24T01:08:36.898Z,36.92
2023-01-24T01:11:03.323Z,30.50
2023-01-24T01:13:29.670Z,28.75
2023-01-24T01:16:10.363Z,31.88
2023-01-24T01:18:36.733Z,33.65
2023-01-24T01:21:03.490Z,29.35
2023-01-24T01:23:29.936Z,32.50
2023-01-24T01:26:00.355Z,28.25
2023-01-24T01:28:28.209Z,30.88
2023-01-24T01:30:54.737Z,34.95
2023-01-24T01:33:21.586Z,34.35
2023-01-24T01:35:48.891Z,31.48
2023-01-24T01:38:15.197Z,35.97
2023-01-24T01:40:41.572Z,34.10
2023-01-24T01:43:12.781Z,33.63
2023-01-24T01:45:49.330Z,31.45
2023-01-24T01:48:18.531Z,26.40
2023-01-24T01:50:47.058Z,36.83
2023-01-24T01:53:15.380Z,30.25
2023-01-24T01:55:42.896Z,28.58
2023-01-24T01:58:09.355Z,36.63
2023-01-24T02:00:36.018Z,31.45
2023-01-24T02:03:29.301Z,32.55
2023-01-24T02:05:55.673Z,38.08
2023-01-24T02:08:23.227Z,27.17
2023-01-24T02:11:09.097Z,27.95
2023-01-24T02:13:36.245Z,29.98
2023-01-24T02:16:05.696Z,27.23
2023-01-24T02:18:35.112Z,27.10
2023-01-24T02:21:03.693Z,27.90
2023-01-24T02:23:37.211Z,30.70
2023-01-24T02:26:22.048Z,37.75
2023-01-24T02:29:00.415Z,26.33
2023-01-24T02:31:27.143Z,24.25
2023-01-24T02:33:53.422Z,32.22
2023-01-24T02:36:31.386Z,27.40
2023-01-24T02:38:58.166Z,29.77
2023-01-24T02:41:27.369Z,27.40
2023-01-24T02:43:55.605Z,28.35
2023-01-24T02:46:21.850Z,30.90
2023-01-24T02:48:50.732Z,29.65
2023-01-24T02:51:35.789Z,27.05
2023-01-24T02:54:02.125Z,29.60
2023-01-24T02:56:47.152Z,34.22
2023-01-24T02:59:13.396Z,25.93
2023-01-24T03:01:39.754Z,28.65
2023-01-24T03:04:06.056Z,27.33
2023-01-24T03:06:33.252Z,27.13
2023-01-24T03:08:59.548Z,35.35
2023-01-24T03:11:32.936Z,25.48
2023-01-24T03:14:17.782Z,26.15
2023-01-24T03:17:02.891Z,34.78
2023-01-24T03:19:48.453Z,33.20
2023-01-24T03:22:33.633Z,33.00
2023-01-24T03:25:18.465Z,32.78
2023-01-24T03:28:03.301Z,33.85
2023-01-24T03:30:51.128Z,31.67
2023-01-24T03:33:36.256Z,29.17
2023-01-24T03:36:07.354Z,25.45
2023-01-24T03:38:54.055Z,28.50
2023-01-24T03:41:21.964Z,27.08
2023-01-24T03:43:48.690Z,31.50
2023-01-24T03:46:15.060Z,32.20
2023-01-24T03:48:51.608Z,33.28
2023-01-24T03:51:40.722Z,32.35
2023-01-24T03:54:07.713Z,28.65
2023-01-24T03:56:44.937Z,29.17
2023-01-24T03:59:11.374Z,28.73
2023-01-24T04:01:39.729Z,31.08
2023-01-24T04:04:12.307Z,37.75
2023-01-24T04:06:38.868Z,23.50
2023-01-24T04:09:09.469Z,26.88
2023-01-24T04:11:37.311Z,24.23
2023-01-24T04:14:12.681Z,19.92
2023-01-24T04:16:52.080Z,23.20
2023-01-24T04:19:26.223Z,21.45
2023-01-24T04:21:52.557Z,17.42
2023-01-24T04:24:19.290Z,10.05
2023-01-24T04:26:45.946Z,11.35
2023-01-24T04:29:18.681Z,9.25
2023-01-24T04:31:48.588Z,15.70
2023-01-24T04:34:21.030Z,18.73
2023-01-24T04:36:47.332Z,20.95
2023-01-24T04:39:13.616Z,26.35
2023-01-24T04:41:50.840Z,21.30
2023-01-24T04:44:17.296Z,21.67
2023-01-24T04:46:44.110Z,20.42
2023-01-24T04:49:11.139Z,21.92
2023-01-24T04:51:43.659Z,22.27
2023-01-24T04:54:14.578Z,23.35
2023-01-24T04:56:41.430Z,22.25
2023-01-24T04:59:07.852Z,23.70
2023-01-24T05:01:35.465Z,32.50
2023-01-24T05:04:09.623Z,24.00
2023-01-24T05:06:36.257Z,24.40
2023-01-24T05:09:04.104Z,26.15
2023-01-24T05:11:39.471Z,19.58
2023-01-24T05:14:08.454Z,19.90
2023-01-24T05:16:35.417Z,13.60
2023-01-24T05:19:01.755Z,13.88
2023-01-24T05:21:28.148Z,12.65
2023-01-24T05:23:54.716Z,13.07
2023-01-24T05:26:24.631Z,8.07
2023-01-24T05:28:52.362Z,11.60
2023-01-24T05:31:19.540Z,13.85
2023-01-24T05:33:45.890Z,9.02
2023-01-24T05:36:13.713Z,11.02
2023-01-24T05:38:42.157Z,10.77
2023-01-24T05:41:10.764Z,10.63
2023-01-24T05:43:38.495Z,8.32
2023-01-24T05:46:06.366Z,11.88
2023-01-24T05:48:37.260Z,10.65
2023-01-24T05:51:07.832Z,9.02
2023-01-24T05:53:35.313Z,15.00
2023-01-24T05:56:03.126Z,12.23
2023-01-24T05:58:33.270Z,17.55
2023-01-24T06:01:07.101Z,12.77
2023-01-24T06:03:43.883Z,11.95
2023-01-24T06:06:23.202Z,13.85
2023-01-24T06:08:49.789Z,10.82
2023-01-24T06:11:18.077Z,14.85
2023-01-24T06:13:45.906Z,15.35
2023-01-24T06:16:13.626Z,14.18
2023-01-24T06:18:40.747Z,14.75
2023-01-24T06:21:08.940Z,14.10
2023-01-24T06:23:35.369Z,10.38
2023-01-24T06:26:04.792Z,10.85
2023-01-24T06:28:31.285Z,8.13
2023-01-24T06:31:03.883Z,13.10
2023-01-24T06:33:48.881Z,9.90
2023-01-24T06:36:20.986Z,14.77
2023-01-24T06:38:47.477Z,7.28
2023-01-24T06:41:17.570Z,12.90
2023-01-24T06:43:44.517Z,9.23
2023-01-24T06:46:11.860Z,14.13
2023-01-24T06:48:38.502Z,7.63
2023-01-24T06:51:05.432Z,9.40
2023-01-24T06:53:33.049Z,10.50
2023-01-24T06:56:00.139Z,13.10
2023-01-24T06:58:26.623Z,15.18
2023-01-24T07:00:53.903Z,14.57
2023-01-24T07:03:21.634Z,10.40
2023-01-24T07:05:48.224Z,17.48
2023-01-24T07:08:16.750Z,10.50
2023-01-24T07:10:46.836Z,12.10
2023-01-24T07:13:13.205Z,11.52
2023-01-24T07:15:39.552Z,14.77
2023-01-24T07:18:09.247Z,23.52
2023-01-24T07:20:35.725Z,13.82
2023-01-24T07:23:02.127Z,12.55
2023-01-24T07:25:29.300Z,13.80
2023-01-24T07:27:55.687Z,12.00
2023-01-24T07:30:22.079Z,11.05
2023-01-24T07:32:48.337Z,13.40
2023-01-24T07:35:14.667Z,15.75
2023-01-24T07:37:40.997Z,17.45
2023-01-24T07:40:07.447Z,18.92
2023-01-24T07:42:33.744Z,12.65
2023-01-24T07:45:00.357Z,16.95
2023-01-24T07:47:27.500Z,15.43
2023-01-24T07:49:53.825Z,14.48
2023-01-24T07:52:20.125Z,14.98
2023-01-24T07:54:46.380Z,10.75
2023-01-24T07:57:12.730Z,15.43
2023-01-24T07:59:39.610Z,11.63
2023-01-24T08:02:06.407Z,12.55
2023-01-24T08:04:34.020Z,14.73
2023-01-24T08:07:20.980Z,8.07
2023-01-24T08:09:47.846Z,11.40
2023-01-24T08:12:14.800Z,11.65
2023-01-24T08:14:41.138Z,12.60
2023-01-24T08:17:07.468Z,12.95
2023-01-24T08:19:54.748Z,12.05
2023-01-24T08:22:20.105Z,12.77
2023-01-24T08:24:46.382Z,14.98
2023-01-24T08:27:12.667Z,11.00
2023-01-24T08:29:38.994Z,15.60
2023-01-24T08:32:05.479Z,15.00
2023-01-24T08:34:31.850Z,14.05
2023-01-24T08:36:59.158Z,14.07
2023-01-24T08:39:29.301Z,14.35
2023-01-24T08:41:55.809Z,16.23
2023-01-24T08:44:22.376Z,15.18
2023-01-24T08:46:48.739Z,14.63
2023-01-24T08:49:15.015Z,12.27
2023-01-24T08:51:41.341Z,11.90
2023-01-24T08:54:08.679Z,10.85
2023-01-24T08:56:35.181Z,10.70
2023-01-24T08:59:01.502Z,11.07
2023-01-24T09:01:27.964Z,15.77
2023-01-24T09:03:57.820Z,14.35
2023-01-24T09:06:24.472Z,14.70
2023-01-24T09:08:52.373Z,15.82
2023-01-24T09:11:18.723Z,13.73
2023-01-24T09:13:44.994Z,14.43
2023-01-24T09:16:11.290Z,16.90
2023-01-24T09:18:37.595Z,16.10
2023-01-24T09:21:04.558Z,12.15
2023-01-24T09:23:31.173Z,13.35
2023-01-24T09:25:57.507Z,11.07
2023-01-24T09:28:23.762Z,13.77
2023-01-24T09:30:50.501Z,11.50
2023-01-24T09:33:18.104Z,12.77
2023-01-24T09:35:58.289Z,11.32
2023-01-24T09:38:25.993Z,14.25
2023-01-24T09:40:57.108Z,11.55
2023-01-24T09:43:39.302Z,14.88
2023-01-24T09:46:12.231Z,18.60
2023-01-24T09:48:38.813Z,9.27
2023-01-24T09:51:07.476Z,15.18
2023-01-24T09:53:38.556Z,12.48
2023-01-24T09:56:05.537Z,13.68
2023-01-24T09:58:36.746Z,13.30
2023-01-24T10:01:10.389Z,15.18
2023-01-24T10:03:37.631Z,15.82
2023-01-24T10:06:15.204Z,15.27
2023-01-24T10:08:56.649Z,14.38
2023-01-24T10:11:22.958Z,16.13
2023-01-24T10:13:55.559Z,15.85
2023-01-24T10:16:33.943Z,19.60
2023-01-24T10:19:20.528Z,13.27
2023-01-24T10:21:46.826Z,13.00
2023-01-24T10:24:19.718Z,12.88
2023-01-24T10:26:49.744Z,12.27
2023-01-24T10:29:18.366Z,13.23
2023-01-24T10:31:50.407Z,13.77
2023-01-24T10:34:19.665Z,17.00
2023-01-24T10:36:49.073Z,13.85
2023-01-24T10:39:15.445Z,12.75
2023-01-24T10:41:41.795Z,16.80
2023-01-24T10:44:27.375Z,11.50
2023-01-24T10:47:09.450Z,8.20
2023-01-24T10:49:37.243Z,12.50
2023-01-24T10:52:11.349Z,12.25
2023-01-24T10:54:43.009Z,14.65
2023-01-24T10:57:20.484Z,8.35
2023-01-24T10:59:47.426Z,9.82
2023-01-24T11:02:24.100Z,13.43
2023-01-24T11:04:58.855Z,13.68
2023-01-24T11:07:39.958Z,14.73
2023-01-24T11:10:20.229Z,13.38
2023-01-24T11:12:51.275Z,16.88
2023-01-24T11:15:20.651Z,14.15
2023-01-24T11:17:47.170Z,15.88
2023-01-24T11:20:32.692Z,11.18
2023-01-24T11:23:18.749Z,16.23
2023-01-24T11:28:23.373Z,14.40
2023-01-24T11:30:50.100Z,11.85
2023-01-24T11:33:35.314Z,14.15
2023-01-24T11:36:12.210Z,13.32
2023-01-24T11:38:43.407Z,16.67
2023-01-24T11:41:16.402Z,18.25
2023-01-24T11:43:49.911Z,12.27
2023-01-24T11:46:28.526Z,18.75
2023-01-24T11:48:59.851Z,17.70
2023-01-24T11:51:43.138Z,18.83
2023-01-24T11:54:14.074Z,15.05
2023-01-24T11:56:56.533Z,21.25
2023-01-24T11:59:22.950Z,14.57
2023-01-24T12:01:53.582Z,13.35
2023-01-24T12:04:22.859Z,14.27
2023-01-24T12:07:12.300Z,11.07
2023-01-24T12:10:02.326Z,12.23
2023-01-24T12:12:36.665Z,17.33
2023-01-24T12:15:13.228Z,14.65
2023-01-24T12:17:57.189Z,14.60
2023-01-24T12:20:31.253Z,12.60
2023-01-24T12:23:16.707Z,15.40
2023-01-24T12:25:45.452Z,15.45
2023-01-24T12:28:18.177Z,16.25
2023-01-24T12:30:48.578Z,12.25
2023-01-24T12:33:28.185Z,15.68
2023-01-24T12:35:56.954Z,15.90
2023-01-24T12:38:28.934Z,15.18
2023-01-24T12:40:58.476Z,12.15
2023-01-24T12:43:46.830Z,19.02
2023-01-24T12:46:17.051Z,25.80
2023-01-24T12:48:47.944Z,16.30
2023-01-24T12:51:23.413Z,16.38
2023-01-24T12:54:02.895Z,18.77
2023-01-24T12:56:33.515Z,17.50
2023-01-24T12:58:59.959Z,17.00
2023-01-24T13:01:35.478Z,15.65
2023-01-24T13:04:23.108Z,16.40
2023-01-24T13:06:49.498Z,17.88
2023-01-24T13:09:15.868Z,75.85
2023-01-24T13:11:46.105Z,16.23
2023-01-24T13:14:30.184Z,17.45
2023-01-24T13:17:16.781Z,20.00
2023-01-24T13:19:57.525Z,13.18
2023-01-24T13:22:41.871Z,13.10
2023-01-24T13:25:17.466Z,13.63
2023-01-24T13:32:39.408Z,17.92
2023-01-24T13:35:25.494Z,12.32
2023-01-24T13:40:18.080Z,17.63
2023-01-24T13:42:44.479Z,15.05
2023-01-24T13:45:32.109Z,16.60
2023-01-24T13:47:59.332Z,12.85
2023-01-24T13:50:26.933Z,14.13
2023-01-24T13:53:11.419Z,13.82
2023-01-24T13:55:40.774Z,18.20
2023-01-24T13:58:07.037Z,14.38
2023-01-24T14:00:34.378Z,14.63
2023-01-24T14:03:05.482Z,14.85
2023-01-24T14:05:42.815Z,13.55
2023-01-24T14:08:15.202Z,11.65
2023-01-24T14:10:46.789Z,20.20
2023-01-24T14:13:31.871Z,18.50
2023-01-24T14:15:58.233Z,19.07
2023-01-24T14:18:42.346Z,22.77
2023-01-24T14:21:16.420Z,16.48
2023-01-24T14:23:42.726Z,15.73
2023-01-24T14:26:14.843Z,17.15
2023-01-24T14:28:43.270Z,16.65
2023-01-24T14:31:20.467Z,14.90
2023-01-24T14:34:08.018Z,14.23
2023-01-24T14:36:38.830Z,17.48
2023-01-24T14:39:11.758Z,20.95
2023-01-24T14:41:40.108Z,13.70
2023-01-24T14:44:17.268Z,20.10
2023-01-24T14:46:51.466Z,13.23
2023-01-24T14:49:25.761Z,15.15
2023-01-24T14:51:51.987Z,17.00
2023-01-24T14:54:22.029Z,16.75
2023-01-24T14:56:48.345Z,13.00
2023-01-24T14:59:16.909Z,17.45
2023-01-24T15:01:43.314Z,17.02
2023-01-24T15:04:23.170Z,17.77
2023-01-24T15:07:06.123Z,14.18
2023-01-24T15:09:32.399Z,17.67
2023-01-24T15:12:11.135Z,16.50
2023-01-24T15:14:37.808Z,18.90
2023-01-24T15:17:04.100Z,15.50
2023-01-24T15:19:32.519Z,14.20
2023-01-24T15:21:58.861Z,18.92
2023-01-24T15:24:26.171Z,20.88
2023-01-24T15:26:52.916Z,16.73
2023-01-24T15:29:38.756Z,19.33
2023-01-24T15:32:23.400Z,16.88
2023-01-24T15:34:49.790Z,20.02
2023-01-24T15:37:16.146Z,23.08
2023-01-24T15:39:43.010Z,16.65
2023-01-24T15:42:33.803Z,27.23
2023-01-24T15:45:00.441Z,21.10
2023-01-24T15:47:45.152Z,19.27
2023-01-24T15:50:34.773Z,23.75
2023-01-24T15:53:23.572Z,18.17
2023-01-24T15:55:50.476Z,19.25
2023-01-24T15:58:16.716Z,19.33
2023-01-24T16:00:50.408Z,20.80
2023-01-24T16:03:16.649Z,20.35
2023-01-24T16:05:42.931Z,19.92
2023-01-24T16:08:09.494Z,17.67
2023-01-24T16:10:36.173Z,18.63
2023-01-24T16:13:02.842Z,22.23
2023-01-24T16:15:29.112Z,22.85
2023-01-24T16:17:55.392Z,22.10
2023-01-24T16:20:22.825Z,19.42
2023-01-24T16:22:49.262Z,20.50
2023-01-24T16:25:16.039Z,20.02
2023-01-24T16:27:42.364Z,21.52
2023-01-24T16:30:26.942Z,18.73
2023-01-24T16:32:53.598Z,15.77
2023-01-24T16:35:19.858Z,18.80
2023-01-24T16:37:46.225Z,21.05
2023-01-24T16:40:13.504Z,21.30
2023-01-24T16:42:41.366Z,19.10
2023-01-24T16:45:11.788Z,23.15
2023-01-24T16:47:38.801Z,21.23
2023-01-24T16:50:05.704Z,18.52
2023-01-24T16:52:32.250Z,28.45
2023-01-24T16:54:58.526Z,22.88
2023-01-24T16:57:24.776Z,23.27
2023-01-24T16:59:51.023Z,23.30
2023-01-24T17:02:17.475Z,26.50
2023-01-24T17:04:43.819Z,24.67
2023-01-24T17:07:10.168Z,22.85
2023-01-24T17:09:36.411Z,22.88
2023-01-24T17:12:13.758Z,28.60
2023-01-24T17:14:41.520Z,30.85
2023-01-24T17:17:07.992Z,23.80
2023-01-24T17:19:35.245Z,29.20
2023-01-24T17:22:01.517Z,28.40
2023-01-24T17:24:28.024Z,22.50
2023-01-24T17:26:54.322Z,27.20
2023-01-24T17:29:24.345Z,25.77
2023-01-24T17:31:50.730Z,31.63
2023-01-24T17:34:17.026Z,25.00
2023-01-24T17:36:43.333Z,28.92
2023-01-24T17:39:09.672Z,28.98
2023-01-24T17:41:36.040Z,29.77
2023-01-24T17:44:02.327Z,30.30
2023-01-24T17:46:28.644Z,28.70
2023-01-24T17:48:55.201Z,22.70
2023-01-24T17:51:21.477Z,30.77
2023-01-24T17:53:48.051Z,32.55
2023-01-24T17:56:15.127Z,29.98
2023-01-24T17:58:41.558Z,29.70
2023-01-24T18:01:08.594Z,35.28
2023-01-24T18:03:34.938Z,31.52
2023-01-24T18:06:02.090Z,33.30
2023-01-24T18:08:28.610Z,35.88
2023-01-24T18:10:55.267Z,28.45
2023-01-24T18:13:21.727Z,30.08
2023-01-24T18:15:48.099Z,28.27
2023-01-24T18:18:14.629Z,30.95
2023-01-24T18:20:41.838Z,23.77
2023-01-24T18:23:08.331Z,25.02
2023-01-24T18:25:36.273Z,27.92
2023-01-24T18:28:03.888Z,34.13
2023-01-24T18:30:30.295Z,32.53
2023-01-24T18:32:56.931Z,28.38
2023-01-24T18:35:23.244Z,30.17
2023-01-24T18:37:49.538Z,29.80
2023-01-24T18:40:15.930Z,31.80
2023-01-24T18:42:42.391Z,33.13
2023-01-24T18:45:09.052Z,36.42
2023-01-24T18:47:35.407Z,42.45
2023-01-24T18:50:01.751Z,33.30
2023-01-24T18:52:28.094Z,33.97
2023-01-24T18:54:55.453Z,41.05
2023-01-24T18:57:21.959Z,36.45
2023-01-24T18:59:48.290Z,44.08
2023-01-24T19:02:14.689Z,37.38
2023-01-24T19:04:41.005Z,37.22
2023-01-24T19:07:07.517Z,36.53
2023-01-24T19:09:33.838Z,45.70
2023-01-24T19:12:00.142Z,37.70
2023-01-24T19:14:29.367Z,31.45
2023-01-24T19:16:55.639Z,35.60
2023-01-24T19:19:25.955Z,29.67
2023-01-24T19:21:52.657Z,35.05
2023-01-24T19:24:19.414Z,38.33
2023-01-24T19:26:45.713Z,35.30
2023-01-24T19:29:11.977Z,32.65
2023-01-24T19:31:38.735Z,33.38
2023-01-24T19:34:05.537Z,26.83
2023-01-24T19:36:31.941Z,33.65
2023-01-24T19:38:59.005Z,34.47
2023-01-24T19:41:26.246Z,35.45
2023-01-24T19:44:18.482Z,36.25
2023-01-24T19:46:39.324Z,34.53
2023-01-24T19:49:05.587Z,35.80
2023-01-24T19:51:31.969Z,33.90
2023-01-24T19:53:58.305Z,27.80
2023-01-24T19:56:24.672Z,35.20
2023-01-24T19:58:54.436Z,29.02
2023-01-24T20:01:21.451Z,33.65
2023-01-24T20:03:48.110Z,35.53
2023-01-24T20:06:15.990Z,35.58
2023-01-24T20:08:46.258Z,33.55
2023-01-24T20:11:12.959Z,30.00
2023-01-24T20:13:39.495Z,34.03
2023-01-24T20:16:13.720Z,30.75
2023-01-24T20:18:40.162Z,29.67
2023-01-24T20:21:06.442Z,39.15
2023-01-24T20:23:32.800Z,31.65
2023-01-24T20:26:03.673Z,35.05
2023-01-24T20:28:30.139Z,35.15
2023-01-24T20:31:01.141Z,36.80
2023-01-24T20:33:27.562Z,34.42
2023-01-24T20:36:03.210Z,32.30
2023-01-24T20:41:09.303Z,33.40
2023-01-24T20:43:36.605Z,35.45
2023-01-24T20:46:04.052Z,39.25
2023-01-24T20:48:30.916Z,32.72
2023-01-24T20:50:57.957Z,39.75
2023-01-24T20:53:24.442Z,37.53
2023-01-24T20:55:58.554Z,38.45
2023-01-24T20:58:25.412Z,40.58
2023-01-24T21:00:52.379Z,103.60
2023-01-24T21:03:19.601Z,45.67
2023-01-24T21:05:45.928Z,41.20
2023-01-24T21:08:12.286Z,37.38
2023-01-24T21:10:38.692Z,39.67
2023-01-24T21:13:05.099Z,34.72
2023-01-24T21:15:31.578Z,36.38
2023-01-24T21:17:57.982Z,38.35
2023-01-24T21:20:25.065Z,38.45
2023-01-24T21:22:51.819Z,39.80
2023-01-24T21:25:18.190Z,36.13
2023-01-24T21:27:48.663Z,29.70
2023-01-24T21:30:15.110Z,33.60
2023-01-24T21:32:41.367Z,43.72
2023-01-24T21:35:08.515Z,34.97
2023-01-24T21:37:35.022Z,39.45
2023-01-24T21:40:01.335Z,33.55
2023-01-24T21:42:28.029Z,26.25
2023-01-24T21:44:54.386Z,32.60
2023-01-24T21:47:20.691Z,26.65
2023-01-24T21:49:46.989Z,34.00
2023-01-24T21:52:13.874Z,35.33
2023-01-24T21:54:40.229Z,30.38
2023-01-24T21:57:32.019Z,32.03
2023-01-24T21:59:59.572Z,35.35
2023-01-24T22:02:27.270Z,35.95
2023-01-24T22:04:54.427Z,30.25
2023-01-24T22:07:22.592Z,32.72
2023-01-24T22:09:49.451Z,35.50
2023-01-24T22:12:15.882Z,34.53
2023-01-24T22:14:42.652Z,30.48
2023-01-24T22:17:12.676Z,32.10
2023-01-24T22:19:40.728Z,31.92
2023-01-24T22:22:07.159Z,38.35
2023-01-24T22:24:42.811Z,38.35
2023-01-24T22:27:12.006Z,35.00
2023-01-24T22:29:38.496Z,26.65
2023-01-24T22:32:05.617Z,22.92
2023-01-24T22:34:32.167Z,32.60
2023-01-24T22:37:02.134Z,26.67
2023-01-24T22:39:28.549Z,23.63
2023-01-24T22:41:54.816Z,30.20
2023-01-24T22:44:21.145Z,27.40
2023-01-24T22:46:47.629Z,31.92
2023-01-24T22:49:14.019Z,30.58
2023-01-24T22:51:40.272Z,32.70
2023-01-24T22:54:06.660Z,37.15
2023-01-24T22:56:32.953Z,36.90
2023-01-24T22:58:59.281Z,32.03
2023-01-24T23:01:25.552Z,29.20
2023-01-24T23:03:51.791Z,38.65
2023-01-24T23:06:18.141Z,39.15
2023-01-24T23:08:44.637Z,34.45
2023-01-24T23:11:12.312Z,32.60
2023-01-24T23:13:57.468Z,35.70
2023-01-24T23:16:28.937Z,30.67
2023-01-24T23:19:13.959Z,32.70
2023-01-24T23:21:40.224Z,33.03
2023-01-24T23:24:06.710Z,31.48
2023-01-24T23:26:33.042Z,36.13
2023-01-24T23:29:25.213Z,27.35
2023-01-24T23:31:53.095Z,31.60
2023-01-24T23:34:31.018Z,31.67
2023-01-24T23:36:57.595Z,28.30
2023-01-24T23:39:23.890Z,35.13
2023-01-24T23:41:50.186Z,27.08
2023-01-24T23:44:16.454Z,33.95
2023-01-24T23:46:42.802Z,29.75
2023-01-24T23:49:09.200Z,29.08
2023-01-24T23:51:35.493Z,30.83
2023-01-24T23:54:01.779Z,29.20
2023-01-24T23:56:28.088Z,26.38
2023-01-24T23:58:54.355Z,28.40
